sensor_id;sensor_type;location;lat;lon;timestamp;temperature;humidity
18173;DHT22;9211;48.818;9.312;2023-06-14T00:02:04;16.70;86.20
18173;DHT22;9211;48.818;9.312;2023-06-14T00:04:34;16.50;86.00
18173;DHT22;9211;48.818;9.312;2023-06-14T00:07:01;16.50;84.70
18173;DHT22;9211;48.818;9.312;2023-06-14T00:09:28;16.50;85.80
18173;DHT22;9211;48.818;9.312;2023-06-14T00:11:57;16.50;84.80
18173;DHT22;9211;48.818;9.312;2023-06-14T00:14:23;16.40;84.20
18173;DHT22;9211;48.818;9.312;2023-06-14T00:16:50;16.50;84.40
18173;DHT22;9211;48.818;9.312;2023-06-14T00:19:18;16.50;85.40
18173;DHT22;9211;48.818;9.312;2023-06-14T00:21:46;16.50;85.30
18173;DHT22;9211;48.818;9.312;2023-06-14T00:24:13;16.40;85.30
18173;DHT22;9211;48.818;9.312;2023-06-14T00:26:40;16.40;85.20
18173;DHT22;9211;48.818;9.312;2023-06-14T00:29:08;16.40;85.00
18173;DHT22;9211;48.818;9.312;2023-06-14T00:31:36;16.10;86.20
18173;DHT22;9211;48.818;9.312;2023-06-14T00:34:02;16.10;85.90
18173;DHT22;9211;48.818;9.312;2023-06-14T00:36:29;16.10;86.00
18173;DHT22;9211;48.818;9.312;2023-06-14T00:38:56;16.20;87.20
18173;DHT22;9211;48.818;9.312;2023-06-14T00:41:23;16.20;87.10
18173;DHT22;9211;48.818;9.312;2023-06-14T00:43:51;16.00;87.40
18173;DHT22;9211;48.818;9.312;2023-06-14T00:46:20;15.80;88.90
18173;DHT22;9211;48.818;9.312;2023-06-14T00:48:48;15.50;89.50
18173;DHT22;9211;48.818;9.312;2023-06-14T00:51:16;15.50;89.40
18173;DHT22;9211;48.818;9.312;2023-06-14T00:53:43;15.60;89.90
18173;DHT22;9211;48.818;9.312;2023-06-14T00:56:12;15.60;89.50
18173;DHT22;9211;48.818;9.312;2023-06-14T00:58:42;15.60;90.10
18173;DHT22;9211;48.818;9.312;2023-06-14T01:01:10;15.50;90.10
18173;DHT22;9211;48.818;9.312;2023-06-14T01:03:38;15.40;90.20
18173;DHT22;9211;48.818;9.312;2023-06-14T01:06:15;15.30;90.40
18173;DHT22;9211;48.818;9.312;2023-06-14T01:09:01;15.40;90.50
18173;DHT22;9211;48.818;9.312;2023-06-14T01:11:35;15.40;90.40
18173;DHT22;9211;48.818;9.312;2023-06-14T01:14:05;15.20;91.00
18173;DHT22;9211;48.818;9.312;2023-06-14T01:16:34;15.10;91.10
18173;DHT22;9211;48.818;9.312;2023-06-14T01:19:03;15.00;91.00
18173;DHT22;9211;48.818;9.312;2023-06-14T01:21:31;15.00;91.20
18173;DHT22;9211;48.818;9.312;2023-06-14T01:24:08;14.90;91.80
18173;DHT22;9211;48.818;9.312;2023-06-14T01:26:37;14.90;91.60
18173;DHT22;9211;48.818;9.312;2023-06-14T01:29:05;14.90;92.10
18173;DHT22;9211;48.818;9.312;2023-06-14T01:31:33;14.70;92.00
18173;DHT22;9211;48.818;9.312;2023-06-14T01:34:07;14.80;92.10
18173;DHT22;9211;48.818;9.312;2023-06-14T01:36:35;14.90;92.00
18173;DHT22;9211;48.818;9.312;2023-06-14T01:39:04;15.00;91.90
18173;DHT22;9211;48.818;9.312;2023-06-14T01:41:34;14.90;91.90
18173;DHT22;9211;48.818;9.312;2023-06-14T01:44:02;14.90;92.00
18173;DHT22;9211;48.818;9.312;2023-06-14T01:46:32;14.80;92.10
18173;DHT22;9211;48.818;9.312;2023-06-14T01:48:59;14.80;92.10
18173;DHT22;9211;48.818;9.312;2023-06-14T01:51:27;14.60;92.80
18173;DHT22;9211;48.818;9.312;2023-06-14T01:53:54;14.40;92.80
18173;DHT22;9211;48.818;9.312;2023-06-14T01:56:21;14.40;92.90
18173;DHT22;9211;48.818;9.312;2023-06-14T01:58:49;14.30;92.90
18173;DHT22;9211;48.818;9.312;2023-06-14T02:01:17;14.40;92.80
18173;DHT22;9211;48.818;9.312;2023-06-14T02:03:44;14.40;92.80
18173;DHT22;9211;48.818;9.312;2023-06-14T02:06:15;14.40;92.70
18173;DHT22;9211;48.818;9.312;2023-06-14T02:08:42;14.40;93.00
18173;DHT22;9211;48.818;9.312;2023-06-14T02:11:12;14.30;93.00
18173;DHT22;9211;48.818;9.312;2023-06-14T02:13:39;14.20;93.20
18173;DHT22;9211;48.818;9.312;2023-06-14T02:16:07;14.30;93.50
18173;DHT22;9211;48.818;9.312;2023-06-14T02:18:35;14.40;93.30
18173;DHT22;9211;48.818;9.312;2023-06-14T02:21:03;14.30;93.20
18173;DHT22;9211;48.818;9.312;2023-06-14T02:23:30;14.20;93.70
18173;DHT22;9211;48.818;9.312;2023-06-14T02:25:58;14.30;93.20
18173;DHT22;9211;48.818;9.312;2023-06-14T02:28:26;14.30;93.10
18173;DHT22;9211;48.818;9.312;2023-06-14T02:30:53;14.20;93.20
18173;DHT22;9211;48.818;9.312;2023-06-14T02:33:24;14.00;93.30
18173;DHT22;9211;48.818;9.312;2023-06-14T02:35:52;14.10;93.50
18173;DHT22;9211;48.818;9.312;2023-06-14T02:38:19;14.10;93.50
18173;DHT22;9211;48.818;9.312;2023-06-14T02:40:48;14.00;94.00
18173;DHT22;9211;48.818;9.312;2023-06-14T02:43:15;14.10;93.70
18173;DHT22;9211;48.818;9.312;2023-06-14T02:45:43;14.10;93.80
18173;DHT22;9211;48.818;9.312;2023-06-14T02:48:10;14.10;93.70
18173;DHT22;9211;48.818;9.312;2023-06-14T02:50:38;14.10;93.70
18173;DHT22;9211;48.818;9.312;2023-06-14T02:53:05;14.20;93.70
18173;DHT22;9211;48.818;9.312;2023-06-14T02:55:33;14.10;93.80
18173;DHT22;9211;48.818;9.312;2023-06-14T02:58:04;14.20;93.80
18173;DHT22;9211;48.818;9.312;2023-06-14T03:00:31;13.80;94.20
18173;DHT22;9211;48.818;9.312;2023-06-14T03:02:58;13.60;94.70
18173;DHT22;9211;48.818;9.312;2023-06-14T03:05:27;13.40;95.00
18173;DHT22;9211;48.818;9.312;2023-06-14T03:07:56;13.40;95.20
18173;DHT22;9211;48.818;9.312;2023-06-14T03:10:23;13.60;95.50
18173;DHT22;9211;48.818;9.312;2023-06-14T03:12:55;13.60;95.00
18173;DHT22;9211;48.818;9.312;2023-06-14T03:15:23;13.50;95.30
18173;DHT22;9211;48.818;9.312;2023-06-14T03:17:51;13.50;95.60
18173;DHT22;9211;48.818;9.312;2023-06-14T03:20:20;13.50;95.60
18173;DHT22;9211;48.818;9.312;2023-06-14T03:22:47;13.60;95.60
18173;DHT22;9211;48.818;9.312;2023-06-14T03:25:16;13.70;95.40
18173;DHT22;9211;48.818;9.312;2023-06-14T03:27:47;13.70;95.30
18173;DHT22;9211;48.818;9.312;2023-06-14T03:30:16;13.70;95.30
18173;DHT22;9211;48.818;9.312;2023-06-14T03:32:47;13.40;95.70
18173;DHT22;9211;48.818;9.312;2023-06-14T03:35:14;13.40;96.20
18173;DHT22;9211;48.818;9.312;2023-06-14T03:37:43;13.30;96.40
18173;DHT22;9211;48.818;9.312;2023-06-14T03:40:12;13.30;96.70
18173;DHT22;9211;48.818;9.312;2023-06-14T03:42:42;13.40;96.50
18173;DHT22;9211;48.818;9.312;2023-06-14T03:45:10;13.50;96.60
18173;DHT22;9211;48.818;9.312;2023-06-14T03:47:37;13.40;96.90
18173;DHT22;9211;48.818;9.312;2023-06-14T03:50:05;13.40;96.90
18173;DHT22;9211;48.818;9.312;2023-06-14T03:52:33;13.40;97.00
18173;DHT22;9211;48.818;9.312;2023-06-14T03:55:00;13.50;97.00
18173;DHT22;9211;48.818;9.312;2023-06-14T03:57:29;13.60;97.10
18173;DHT22;9211;48.818;9.312;2023-06-14T03:59:58;13.60;97.40
18173;DHT22;9211;48.818;9.312;2023-06-14T04:02:26;13.60;97.10
18173;DHT22;9211;48.818;9.312;2023-06-14T04:04:54;13.50;97.50
18173;DHT22;9211;48.818;9.312;2023-06-14T04:07:22;13.50;97.40
18173;DHT22;9211;48.818;9.312;2023-06-14T04:09:49;13.60;97.30
18173;DHT22;9211;48.818;9.312;2023-06-14T04:12:16;13.70;97.30
18173;DHT22;9211;48.818;9.312;2023-06-14T04:14:43;13.80;97.20
18173;DHT22;9211;48.818;9.312;2023-06-14T04:17:12;13.90;96.80
18173;DHT22;9211;48.818;9.312;2023-06-14T04:19:43;13.90;96.80
18173;DHT22;9211;48.818;9.312;2023-06-14T04:22:10;13.90;97.00
18173;DHT22;9211;48.818;9.312;2023-06-14T04:24:38;14.00;96.10
18173;DHT22;9211;48.818;9.312;2023-06-14T04:27:05;14.00;95.90
18173;DHT22;9211;48.818;9.312;2023-06-14T04:29:32;14.00;95.90
18173;DHT22;9211;48.818;9.312;2023-06-14T04:32:04;14.00;96.50
18173;DHT22;9211;48.818;9.312;2023-06-14T04:34:38;13.90;97.20
18173;DHT22;9211;48.818;9.312;2023-06-14T04:37:07;13.90;96.80
18173;DHT22;9211;48.818;9.312;2023-06-14T04:39:38;13.80;96.70
18173;DHT22;9211;48.818;9.312;2023-06-14T04:42:05;13.90;96.70
18173;DHT22;9211;48.818;9.312;2023-06-14T04:44:33;13.90;96.80
18173;DHT22;9211;48.818;9.312;2023-06-14T04:47:03;14.00;96.90
18173;DHT22;9211;48.818;9.312;2023-06-14T04:49:30;14.10;97.10
18173;DHT22;9211;48.818;9.312;2023-06-14T04:52:01;14.10;97.10
18173;DHT22;9211;48.818;9.312;2023-06-14T04:54:33;14.10;97.40
18173;DHT22;9211;48.818;9.312;2023-06-14T04:57:03;14.10;96.50
18173;DHT22;9211;48.818;9.312;2023-06-14T04:59:31;14.10;96.30
18173;DHT22;9211;48.818;9.312;2023-06-14T05:01:59;14.20;96.00
18173;DHT22;9211;48.818;9.312;2023-06-14T05:04:26;14.20;95.80
18173;DHT22;9211;48.818;9.312;2023-06-14T05:06:54;14.20;95.60
18173;DHT22;9211;48.818;9.312;2023-06-14T05:09:22;14.40;95.60
18173;DHT22;9211;48.818;9.312;2023-06-14T05:11:50;14.50;95.80
18173;DHT22;9211;48.818;9.312;2023-06-14T05:14:17;14.50;95.60
18173;DHT22;9211;48.818;9.312;2023-06-14T05:16:46;14.60;95.80
18173;DHT22;9211;48.818;9.312;2023-06-14T05:19:14;14.70;95.30
18173;DHT22;9211;48.818;9.312;2023-06-14T05:21:43;14.80;95.30
18173;DHT22;9211;48.818;9.312;2023-06-14T05:24:10;14.90;95.10
18173;DHT22;9211;48.818;9.312;2023-06-14T05:27:00;15.00;95.00
18173;DHT22;9211;48.818;9.312;2023-06-14T05:29:27;15.00;95.50
18173;DHT22;9211;48.818;9.312;2023-06-14T05:31:54;15.10;95.40
18173;DHT22;9211;48.818;9.312;2023-06-14T05:34:21;15.30;95.90
18173;DHT22;9211;48.818;9.312;2023-06-14T05:36:48;15.30;96.90
18173;DHT22;9211;48.818;9.312;2023-06-14T05:39:14;15.20;96.90
18173;DHT22;9211;48.818;9.312;2023-06-14T05:41:42;15.30;96.80
18173;DHT22;9211;48.818;9.312;2023-06-14T05:44:11;15.40;96.30
18173;DHT22;9211;48.818;9.312;2023-06-14T05:46:38;15.50;95.40
18173;DHT22;9211;48.818;9.312;2023-06-14T05:49:05;15.60;94.80
18173;DHT22;9211;48.818;9.312;2023-06-14T05:51:32;15.80;94.60
18173;DHT22;9211;48.818;9.312;2023-06-14T05:53:59;15.90;94.70
18173;DHT22;9211;48.818;9.312;2023-06-14T05:56:27;15.90;95.00
18173;DHT22;9211;48.818;9.312;2023-06-14T05:58:54;16.00;94.70
18173;DHT22;9211;48.818;9.312;2023-06-14T06:01:22;16.10;94.20
18173;DHT22;9211;48.818;9.312;2023-06-14T06:03:49;16.10;94.90
18173;DHT22;9211;48.818;9.312;2023-06-14T06:06:16;16.20;95.30
18173;DHT22;9211;48.818;9.312;2023-06-14T06:08:43;16.30;95.70
18173;DHT22;9211;48.818;9.312;2023-06-14T06:11:10;16.40;95.60
18173;DHT22;9211;48.818;9.312;2023-06-14T06:13:38;16.40;95.80
18173;DHT22;9211;48.818;9.312;2023-06-14T06:16:06;16.50;95.20
18173;DHT22;9211;48.818;9.312;2023-06-14T06:18:34;16.60;94.80
18173;DHT22;9211;48.818;9.312;2023-06-14T06:21:03;16.60;94.40
18173;DHT22;9211;48.818;9.312;2023-06-14T06:23:30;16.70;94.20
18173;DHT22;9211;48.818;9.312;2023-06-14T06:25:57;16.80;93.70
18173;DHT22;9211;48.818;9.312;2023-06-14T06:28:24;16.90;93.50
18173;DHT22;9211;48.818;9.312;2023-06-14T06:30:51;16.90;93.40
18173;DHT22;9211;48.818;9.312;2023-06-14T06:33:19;17.00;93.30
18173;DHT22;9211;48.818;9.312;2023-06-14T06:35:47;17.00;93.00
18173;DHT22;9211;48.818;9.312;2023-06-14T06:38:14;17.10;92.80
18173;DHT22;9211;48.818;9.312;2023-06-14T06:40:41;17.20;92.20
18173;DHT22;9211;48.818;9.312;2023-06-14T06:43:08;17.30;92.10
18173;DHT22;9211;48.818;9.312;2023-06-14T06:45:41;17.30;91.50
18173;DHT22;9211;48.818;9.312;2023-06-14T06:48:08;17.40;91.10
18173;DHT22;9211;48.818;9.312;2023-06-14T06:50:36;17.50;90.70
18173;DHT22;9211;48.818;9.312;2023-06-14T06:53:04;17.50;90.60
18173;DHT22;9211;48.818;9.312;2023-06-14T06:55:32;17.60;90.30
18173;DHT22;9211;48.818;9.312;2023-06-14T06:57:59;17.60;89.20
18173;DHT22;9211;48.818;9.312;2023-06-14T07:00:26;17.70;89.20
18173;DHT22;9211;48.818;9.312;2023-06-14T07:02:53;17.70;88.40
18173;DHT22;9211;48.818;9.312;2023-06-14T07:05:20;17.80;88.30
18173;DHT22;9211;48.818;9.312;2023-06-14T07:07:47;17.80;88.30
18173;DHT22;9211;48.818;9.312;2023-06-14T07:10:16;17.80;87.80
18173;DHT22;9211;48.818;9.312;2023-06-14T07:12:44;17.90;89.00
18173;DHT22;9211;48.818;9.312;2023-06-14T07:15:11;17.90;87.80
18173;DHT22;9211;48.818;9.312;2023-06-14T07:17:38;18.00;87.80
18173;DHT22;9211;48.818;9.312;2023-06-14T07:20:06;18.10;88.50
18173;DHT22;9211;48.818;9.312;2023-06-14T07:22:39;18.10;89.00
18173;DHT22;9211;48.818;9.312;2023-06-14T07:25:08;18.20;89.00
18173;DHT22;9211;48.818;9.312;2023-06-14T07:27:36;18.30;88.90
18173;DHT22;9211;48.818;9.312;2023-06-14T07:30:04;18.30;88.60
18173;DHT22;9211;48.818;9.312;2023-06-14T07:32:32;18.40;88.70
18173;DHT22;9211;48.818;9.312;2023-06-14T07:34:59;18.40;88.40
18173;DHT22;9211;48.818;9.312;2023-06-14T07:37:26;18.40;89.80
18173;DHT22;9211;48.818;9.312;2023-06-14T07:39:53;18.40;89.20
18173;DHT22;9211;48.818;9.312;2023-06-14T07:42:20;18.50;90.30
18173;DHT22;9211;48.818;9.312;2023-06-14T07:44:49;18.60;89.80
18173;DHT22;9211;48.818;9.312;2023-06-14T07:47:18;18.70;90.00
18173;DHT22;9211;48.818;9.312;2023-06-14T07:49:44;18.80;90.00
18173;DHT22;9211;48.818;9.312;2023-06-14T07:52:11;18.90;89.00
18173;DHT22;9211;48.818;9.312;2023-06-14T07:54:39;18.90;88.80
18173;DHT22;9211;48.818;9.312;2023-06-14T07:57:06;19.00;89.90
18173;DHT22;9211;48.818;9.312;2023-06-14T07:59:34;19.00;89.00
18173;DHT22;9211;48.818;9.312;2023-06-14T08:02:02;19.00;89.10
18173;DHT22;9211;48.818;9.312;2023-06-14T08:04:30;19.10;89.00
18173;DHT22;9211;48.818;9.312;2023-06-14T08:06:58;19.20;88.60
18173;DHT22;9211;48.818;9.312;2023-06-14T08:09:25;19.20;88.40
18173;DHT22;9211;48.818;9.312;2023-06-14T08:11:53;19.30;88.60
18173;DHT22;9211;48.818;9.312;2023-06-14T08:14:20;19.40;88.60
18173;DHT22;9211;48.818;9.312;2023-06-14T08:16:47;19.40;88.00
18173;DHT22;9211;48.818;9.312;2023-06-14T08:19:15;19.50;86.80
18173;DHT22;9211;48.818;9.312;2023-06-14T08:21:43;19.60;86.60
18173;DHT22;9211;48.818;9.312;2023-06-14T08:24:11;19.60;85.80
18173;DHT22;9211;48.818;9.312;2023-06-14T08:26:39;19.70;85.00
18173;DHT22;9211;48.818;9.312;2023-06-14T08:29:06;19.80;85.50
18173;DHT22;9211;48.818;9.312;2023-06-14T08:31:34;19.90;84.90
18173;DHT22;9211;48.818;9.312;2023-06-14T08:34:01;20.00;84.30
18173;DHT22;9211;48.818;9.312;2023-06-14T08:36:29;20.00;83.70
18173;DHT22;9211;48.818;9.312;2023-06-14T08:38:56;20.10;83.80
18173;DHT22;9211;48.818;9.312;2023-06-14T08:41:23;20.20;83.60
18173;DHT22;9211;48.818;9.312;2023-06-14T08:43:50;20.30;82.60
18173;DHT22;9211;48.818;9.312;2023-06-14T08:46:18;20.40;81.60
18173;DHT22;9211;48.818;9.312;2023-06-14T08:48:49;20.50;81.90
18173;DHT22;9211;48.818;9.312;2023-06-14T08:51:18;20.60;81.80
18173;DHT22;9211;48.818;9.312;2023-06-14T08:53:52;20.60;81.80
18173;DHT22;9211;48.818;9.312;2023-06-14T08:56:20;20.70;82.30
18173;DHT22;9211;48.818;9.312;2023-06-14T08:58:48;20.80;82.60
18173;DHT22;9211;48.818;9.312;2023-06-14T09:01:16;20.80;81.70
18173;DHT22;9211;48.818;9.312;2023-06-14T09:03:43;21.00;82.60
18173;DHT22;9211;48.818;9.312;2023-06-14T09:06:11;21.10;81.80
18173;DHT22;9211;48.818;9.312;2023-06-14T09:08:42;21.10;80.80
18173;DHT22;9211;48.818;9.312;2023-06-14T09:11:12;21.10;80.20
18173;DHT22;9211;48.818;9.312;2023-06-14T09:13:41;21.20;79.70
18173;DHT22;9211;48.818;9.312;2023-06-14T09:16:08;21.30;80.20
18173;DHT22;9211;48.818;9.312;2023-06-14T09:18:36;21.40;81.00
18173;DHT22;9211;48.818;9.312;2023-06-14T09:21:05;21.50;80.00
18173;DHT22;9211;48.818;9.312;2023-06-14T09:23:36;21.60;79.40
18173;DHT22;9211;48.818;9.312;2023-06-14T09:26:07;21.70;78.60
18173;DHT22;9211;48.818;9.312;2023-06-14T09:28:36;21.80;76.60
18173;DHT22;9211;48.818;9.312;2023-06-14T09:31:03;21.90;78.10
18173;DHT22;9211;48.818;9.312;2023-06-14T09:33:31;22.00;76.20
18173;DHT22;9211;48.818;9.312;2023-06-14T09:35:58;22.10;73.90
18173;DHT22;9211;48.818;9.312;2023-06-14T09:38:25;22.20;71.10
18173;DHT22;9211;48.818;9.312;2023-06-14T09:40:55;22.20;73.00
18173;DHT22;9211;48.818;9.312;2023-06-14T09:43:23;22.30;72.50
18173;DHT22;9211;48.818;9.312;2023-06-14T09:45:54;22.30;71.50
18173;DHT22;9211;48.818;9.312;2023-06-14T09:48:21;22.50;71.10
18173;DHT22;9211;48.818;9.312;2023-06-14T09:50:50;22.50;70.80
18173;DHT22;9211;48.818;9.312;2023-06-14T09:53:21;22.60;69.80
18173;DHT22;9211;48.818;9.312;2023-06-14T09:55:49;22.70;69.80
18173;DHT22;9211;48.818;9.312;2023-06-14T09:58:18;22.80;69.60
18173;DHT22;9211;48.818;9.312;2023-06-14T10:00:47;22.90;69.10
18173;DHT22;9211;48.818;9.312;2023-06-14T10:03:22;23.00;68.60
18173;DHT22;9211;48.818;9.312;2023-06-14T10:05:51;23.20;67.70
18173;DHT22;9211;48.818;9.312;2023-06-14T10:08:20;23.30;67.90
18173;DHT22;9211;48.818;9.312;2023-06-14T10:10:50;23.30;65.60
18173;DHT22;9211;48.818;9.312;2023-06-14T10:13:18;23.40;66.20
18173;DHT22;9211;48.818;9.312;2023-06-14T10:15:53;23.50;65.40
18173;DHT22;9211;48.818;9.312;2023-06-14T10:18:31;23.60;64.80
18173;DHT22;9211;48.818;9.312;2023-06-14T10:21:05;23.80;65.00
18173;DHT22;9211;48.818;9.312;2023-06-14T10:23:37;24.00;62.30
18173;DHT22;9211;48.818;9.312;2023-06-14T10:26:06;24.10;64.00
18173;DHT22;9211;48.818;9.312;2023-06-14T10:28:37;24.20;64.10
18173;DHT22;9211;48.818;9.312;2023-06-14T10:31:09;24.30;63.80
18173;DHT22;9211;48.818;9.312;2023-06-14T10:33:48;24.50;63.60
18173;DHT22;9211;48.818;9.312;2023-06-14T10:36:27;24.50;61.30
18173;DHT22;9211;48.818;9.312;2023-06-14T10:39:00;24.60;60.90
18173;DHT22;9211;48.818;9.312;2023-06-14T10:41:29;24.60;62.60
18173;DHT22;9211;48.818;9.312;2023-06-14T10:44:33;24.60;60.50
18173;DHT22;9211;48.818;9.312;2023-06-14T10:47:01;24.70;59.70
18173;DHT22;9211;48.818;9.312;2023-06-14T10:49:42;24.60;59.90
18173;DHT22;9211;48.818;9.312;2023-06-14T10:52:12;24.70;60.40
18173;DHT22;9211;48.818;9.312;2023-06-14T10:55:10;24.60;60.40
18173;DHT22;9211;48.818;9.312;2023-06-14T10:57:39;24.60;60.40
18173;DHT22;9211;48.818;9.312;2023-06-14T11:00:08;24.60;60.80
18173;DHT22;9211;48.818;9.312;2023-06-14T11:03:22;24.60;61.20
18173;DHT22;9211;48.818;9.312;2023-06-14T11:05:54;24.70;61.90
18173;DHT22;9211;48.818;9.312;2023-06-14T11:08:39;24.80;60.30
18173;DHT22;9211;48.818;9.312;2023-06-14T11:11:07;24.80;59.50
18173;DHT22;9211;48.818;9.312;2023-06-14T11:13:37;24.90;60.70
18173;DHT22;9211;48.818;9.312;2023-06-14T11:16:10;25.00;61.20
18173;DHT22;9211;48.818;9.312;2023-06-14T11:18:38;25.00;59.70
18173;DHT22;9211;48.818;9.312;2023-06-14T11:21:07;25.00;60.40
18173;DHT22;9211;48.818;9.312;2023-06-14T11:23:34;25.00;59.10
18173;DHT22;9211;48.818;9.312;2023-06-14T11:26:02;24.90;59.10
18173;DHT22;9211;48.818;9.312;2023-06-14T11:28:37;24.70;59.00
18173;DHT22;9211;48.818;9.312;2023-06-14T11:31:04;24.70;60.90
18173;DHT22;9211;48.818;9.312;2023-06-14T11:33:31;24.60;60.10
18173;DHT22;9211;48.818;9.312;2023-06-14T11:36:01;24.60;59.50
18173;DHT22;9211;48.818;9.312;2023-06-14T11:38:29;24.60;59.10
18173;DHT22;9211;48.818;9.312;2023-06-14T11:40:58;24.60;59.10
18173;DHT22;9211;48.818;9.312;2023-06-14T11:43:26;24.50;59.70
18173;DHT22;9211;48.818;9.312;2023-06-14T11:45:53;24.40;59.20
18173;DHT22;9211;48.818;9.312;2023-06-14T11:48:20;24.40;59.50
18173;DHT22;9211;48.818;9.312;2023-06-14T11:50:50;24.40;59.90
18173;DHT22;9211;48.818;9.312;2023-06-14T11:53:17;24.50;59.60
18173;DHT22;9211;48.818;9.312;2023-06-14T11:55:46;24.50;59.40
18173;DHT22;9211;48.818;9.312;2023-06-14T11:58:13;24.40;58.50
18173;DHT22;9211;48.818;9.312;2023-06-14T12:00:40;24.40;59.70
18173;DHT22;9211;48.818;9.312;2023-06-14T12:03:08;24.40;60.40
18173;DHT22;9211;48.818;9.312;2023-06-14T12:05:36;24.40;59.90
18173;DHT22;9211;48.818;9.312;2023-06-14T12:08:03;24.50;60.70
18173;DHT22;9211;48.818;9.312;2023-06-14T12:10:40;24.60;59.80
18173;DHT22;9211;48.818;9.312;2023-06-14T12:13:12;24.70;59.70
18173;DHT22;9211;48.818;9.312;2023-06-14T12:15:39;24.80;59.00
18173;DHT22;9211;48.818;9.312;2023-06-14T12:18:06;24.90;58.60
18173;DHT22;9211;48.818;9.312;2023-06-14T12:20:34;25.00;59.00
18173;DHT22;9211;48.818;9.312;2023-06-14T12:23:03;25.10;59.40
18173;DHT22;9211;48.818;9.312;2023-06-14T12:25:32;25.30;58.80
18173;DHT22;9211;48.818;9.312;2023-06-14T12:28:03;25.50;58.60
18173;DHT22;9211;48.818;9.312;2023-06-14T12:30:32;25.60;57.20
18173;DHT22;9211;48.818;9.312;2023-06-14T12:32:59;25.60;57.20
18173;DHT22;9211;48.818;9.312;2023-06-14T12:35:26;25.80;57.10
18173;DHT22;9211;48.818;9.312;2023-06-14T12:37:53;25.80;56.50
18173;DHT22;9211;48.818;9.312;2023-06-14T12:40:20;26.00;56.80
18173;DHT22;9211;48.818;9.312;2023-06-14T12:42:47;26.10;57.20
18173;DHT22;9211;48.818;9.312;2023-06-14T12:45:15;26.20;57.30
18173;DHT22;9211;48.818;9.312;2023-06-14T12:47:43;26.40;58.00
18173;DHT22;9211;48.818;9.312;2023-06-14T12:50:10;26.50;56.60
18173;DHT22;9211;48.818;9.312;2023-06-14T12:52:37;26.50;55.70
18173;DHT22;9211;48.818;9.312;2023-06-14T12:55:05;26.50;56.90
18173;DHT22;9211;48.818;9.312;2023-06-14T12:57:32;26.70;57.20
18173;DHT22;9211;48.818;9.312;2023-06-14T13:00:02;26.80;55.90
18173;DHT22;9211;48.818;9.312;2023-06-14T13:02:29;26.70;55.00
18173;DHT22;9211;48.818;9.312;2023-06-14T13:04:58;26.50;56.10
18173;DHT22;9211;48.818;9.312;2023-06-14T13:07:26;26.50;56.50
18173;DHT22;9211;48.818;9.312;2023-06-14T13:09:52;26.50;56.90
18173;DHT22;9211;48.818;9.312;2023-06-14T13:12:19;26.40;55.90
18173;DHT22;9211;48.818;9.312;2023-06-14T13:14:46;26.10;56.40
18173;DHT22;9211;48.818;9.312;2023-06-14T13:17:13;26.10;56.90
18173;DHT22;9211;48.818;9.312;2023-06-14T13:19:40;26.20;58.60
18173;DHT22;9211;48.818;9.312;2023-06-14T13:22:09;26.50;59.30
18173;DHT22;9211;48.818;9.312;2023-06-14T13:24:36;26.80;57.90
18173;DHT22;9211;48.818;9.312;2023-06-14T13:27:03;26.90;57.20
18173;DHT22;9211;48.818;9.312;2023-06-14T13:29:31;27.20;57.30
18173;DHT22;9211;48.818;9.312;2023-06-14T13:31:58;27.30;56.90
18173;DHT22;9211;48.818;9.312;2023-06-14T13:34:26;27.40;57.20
18173;DHT22;9211;48.818;9.312;2023-06-14T13:36:53;27.30;56.40
18173;DHT22;9211;48.818;9.312;2023-06-14T13:39:22;27.20;55.90
18173;DHT22;9211;48.818;9.312;2023-06-14T13:41:49;27.20;56.50
18173;DHT22;9211;48.818;9.312;2023-06-14T13:44:16;27.10;57.00
18173;DHT22;9211;48.818;9.312;2023-06-14T13:46:47;27.00;56.60
18173;DHT22;9211;48.818;9.312;2023-06-14T13:49:14;26.80;56.00
18173;DHT22;9211;48.818;9.312;2023-06-14T13:51:41;26.70;56.80
18173;DHT22;9211;48.818;9.312;2023-06-14T13:54:08;26.60;56.80
18173;DHT22;9211;48.818;9.312;2023-06-14T13:56:36;26.40;57.00
18173;DHT22;9211;48.818;9.312;2023-06-14T13:59:03;26.40;56.90
18173;DHT22;9211;48.818;9.312;2023-06-14T14:01:30;26.40;57.10
18173;DHT22;9211;48.818;9.312;2023-06-14T14:03:57;26.50;56.80
18173;DHT22;9211;48.818;9.312;2023-06-14T14:06:26;26.60;56.30
18173;DHT22;9211;48.818;9.312;2023-06-14T14:08:53;26.70;56.00
18173;DHT22;9211;48.818;9.312;2023-06-14T14:11:20;26.70;55.60
18173;DHT22;9211;48.818;9.312;2023-06-14T14:13:49;26.80;55.50
18173;DHT22;9211;48.818;9.312;2023-06-14T14:16:16;26.80;55.70
18173;DHT22;9211;48.818;9.312;2023-06-14T14:18:43;26.90;56.30
18173;DHT22;9211;48.818;9.312;2023-06-14T14:21:10;27.10;56.50
18173;DHT22;9211;48.818;9.312;2023-06-14T14:23:37;27.20;55.90
18173;DHT22;9211;48.818;9.312;2023-06-14T14:26:04;27.40;56.10
18173;DHT22;9211;48.818;9.312;2023-06-14T14:28:31;27.70;55.90
18173;DHT22;9211;48.818;9.312;2023-06-14T14:31:01;27.90;54.40
18173;DHT22;9211;48.818;9.312;2023-06-14T14:33:28;27.90;55.10
18173;DHT22;9211;48.818;9.312;2023-06-14T14:35:55;28.00;55.20
18173;DHT22;9211;48.818;9.312;2023-06-14T14:38:22;28.20;54.70
18173;DHT22;9211;48.818;9.312;2023-06-14T14:40:49;28.10;53.80
18173;DHT22;9211;48.818;9.312;2023-06-14T14:43:16;28.00;54.10
18173;DHT22;9211;48.818;9.312;2023-06-14T14:45:43;27.80;55.60
18173;DHT22;9211;48.818;9.312;2023-06-14T14:48:11;27.70;54.70
18173;DHT22;9211;48.818;9.312;2023-06-14T14:50:38;27.50;55.60
18173;DHT22;9211;48.818;9.312;2023-06-14T14:53:05;27.40;55.40
18173;DHT22;9211;48.818;9.312;2023-06-14T14:55:32;27.30;55.60
18173;DHT22;9211;48.818;9.312;2023-06-14T14:58:00;27.10;55.60
18173;DHT22;9211;48.818;9.312;2023-06-14T15:00:28;27.00;55.00
18173;DHT22;9211;48.818;9.312;2023-06-14T15:02:55;26.80;55.30
18173;DHT22;9211;48.818;9.312;2023-06-14T15:05:23;26.60;55.90
18173;DHT22;9211;48.818;9.312;2023-06-14T15:07:50;26.60;55.80
18173;DHT22;9211;48.818;9.312;2023-06-14T15:10:17;26.60;55.40
18173;DHT22;9211;48.818;9.312;2023-06-14T15:12:44;26.50;55.20
18173;DHT22;9211;48.818;9.312;2023-06-14T15:15:11;26.70;55.50
18173;DHT22;9211;48.818;9.312;2023-06-14T15:17:38;26.90;55.70
18173;DHT22;9211;48.818;9.312;2023-06-14T15:20:06;27.10;55.20
18173;DHT22;9211;48.818;9.312;2023-06-14T15:22:37;27.20;55.00
18173;DHT22;9211;48.818;9.312;2023-06-14T15:25:05;27.40;54.80
18173;DHT22;9211;48.818;9.312;2023-06-14T15:27:32;27.40;53.90
18173;DHT22;9211;48.818;9.312;2023-06-14T15:29:59;27.50;53.90
18173;DHT22;9211;48.818;9.312;2023-06-14T15:32:26;27.80;54.00
18173;DHT22;9211;48.818;9.312;2023-06-14T15:34:53;27.80;54.10
18173;DHT22;9211;48.818;9.312;2023-06-14T15:37:20;28.00;54.00
18173;DHT22;9211;48.818;9.312;2023-06-14T15:39:48;28.10;53.40
18173;DHT22;9211;48.818;9.312;2023-06-14T15:42:15;28.30;53.40
18173;DHT22;9211;48.818;9.312;2023-06-14T15:44:42;28.40;53.00
18173;DHT22;9211;48.818;9.312;2023-06-14T15:47:09;28.50;52.90
18173;DHT22;9211;48.818;9.312;2023-06-14T15:49:36;28.70;53.10
18173;DHT22;9211;48.818;9.312;2023-06-14T15:52:03;28.90;52.10
18173;DHT22;9211;48.818;9.312;2023-06-14T15:54:31;28.90;51.60